sensor_id;sensor_type;location;lat;lon;timestamp;P1;durP1;ratioP1;P2;durP2;ratioP2
21786;SDS011;11055;50.870;4.316;2022-12-18T00:01:15;48.03;;;28.17;;
21786;SDS011;11055;50.870;4.316;2022-12-18T00:03:46;47.38;;;26.70;;
21786;SDS011;11055;50.870;4.316;2022-12-18T00:06:12;49.63;;;27.70;;
21786;SDS011;11055;50.870;4.316;2022-12-18T00:08:41;47.60;;;27.35;;
21786;SDS011;11055;50.870;4.316;2022-12-18T00:11:09;46.45;;;27.95;;
21786;SDS011;11055;50.870;4.316;2022-12-18T00:13:37;45.17;;;27.27;;
21786;SDS011;11055;50.870;4.316;2022-12-18T00:16:03;49.00;;;27.98;;
21786;SDS011;11055;50.870;4.316;2022-12-18T00:18:30;49.45;;;27.92;;
21786;SDS011;11055;50.870;4.316;2022-12-18T00:21:00;47.15;;;26.83;;
21786;SDS011;11055;50.870;4.316;2022-12-18T00:23:27;45.78;;;26.90;;
21786;SDS011;11055;50.870;4.316;2022-12-18T00:25:54;44.58;;;26.20;;
21786;SDS011;11055;50.870;4.316;2022-12-18T00:28:20;44.33;;;25.70;;
21786;SDS011;11055;50.870;4.316;2022-12-18T00:30:45;42.45;;;24.40;;
21786;SDS011;11055;50.870;4.316;2022-12-18T00:33:11;44.45;;;25.52;;
21786;SDS011;11055;50.870;4.316;2022-12-18T00:35:36;45.10;;;26.20;;
21786;SDS011;11055;50.870;4.316;2022-12-18T00:38:02;42.95;;;25.00;;
21786;SDS011;11055;50.870;4.316;2022-12-18T00:40:28;45.30;;;25.13;;
21786;SDS011;11055;50.870;4.316;2022-12-18T00:42:53;41.50;;;24.10;;
21786;SDS011;11055;50.870;4.316;2022-12-18T00:45:26;43.70;;;24.67;;
21786;SDS011;11055;50.870;4.316;2022-12-18T00:47:53;41.45;;;24.60;;
21786;SDS011;11055;50.870;4.316;2022-12-18T00:50:20;40.53;;;23.85;;
21786;SDS011;11055;50.870;4.316;2022-12-18T00:52:46;40.95;;;25.08;;
21786;SDS011;11055;50.870;4.316;2022-12-18T00:55:12;43.53;;;25.58;;
21786;SDS011;11055;50.870;4.316;2022-12-18T00:57:38;39.80;;;24.30;;
21786;SDS011;11055;50.870;4.316;2022-12-18T01:00:04;42.38;;;24.27;;
21786;SDS011;11055;50.870;4.316;2022-12-18T01:02:31;43.85;;;25.33;;
21786;SDS011;11055;50.870;4.316;2022-12-18T01:04:57;37.42;;;21.00;;
21786;SDS011;11055;50.870;4.316;2022-12-18T01:07:23;37.00;;;22.05;;
21786;SDS011;11055;50.870;4.316;2022-12-18T01:09:48;34.78;;;20.85;;
21786;SDS011;11055;50.870;4.316;2022-12-18T01:12:14;31.45;;;18.75;;
21786;SDS011;11055;50.870;4.316;2022-12-18T01:14:40;23.02;;;14.98;;
21786;SDS011;11055;50.870;4.316;2022-12-18T01:17:05;28.90;;;17.92;;
21786;SDS011;11055;50.870;4.316;2022-12-18T01:19:31;29.38;;;17.05;;
21786;SDS011;11055;50.870;4.316;2022-12-18T01:21:57;24.73;;;16.13;;
21786;SDS011;11055;50.870;4.316;2022-12-18T01:24:23;24.30;;;15.75;;
21786;SDS011;11055;50.870;4.316;2022-12-18T01:26:49;26.65;;;16.83;;
21786;SDS011;11055;50.870;4.316;2022-12-18T01:29:15;32.45;;;17.98;;
21786;SDS011;11055;50.870;4.316;2022-12-18T01:31:40;36.90;;;21.17;;
21786;SDS011;11055;50.870;4.316;2022-12-18T01:34:06;40.70;;;22.30;;
21786;SDS011;11055;50.870;4.316;2022-12-18T01:36:33;34.83;;;20.23;;
21786;SDS011;11055;50.870;4.316;2022-12-18T01:39:01;31.55;;;19.75;;
21786;SDS011;11055;50.870;4.316;2022-12-18T01:41:32;31.98;;;19.08;;
21786;SDS011;11055;50.870;4.316;2022-12-18T01:49:47;31.45;;;17.88;;
21786;SDS011;11055;50.870;4.316;2022-12-18T01:52:13;26.83;;;17.45;;
21786;SDS011;11055;50.870;4.316;2022-12-18T01:54:40;32.00;;;18.27;;
21786;SDS011;11055;50.870;4.316;2022-12-18T01:57:06;29.67;;;17.63;;
21786;SDS011;11055;50.870;4.316;2022-12-18T01:59:32;30.75;;;17.80;;
21786;SDS011;11055;50.870;4.316;2022-12-18T02:02:00;32.25;;;18.75;;
21786;SDS011;11055;50.870;4.316;2022-12-18T02:04:27;31.73;;;18.23;;
21786;SDS011;11055;50.870;4.316;2022-12-18T02:07:01;30.40;;;17.30;;
21786;SDS011;11055;50.870;4.316;2022-12-18T02:09:41;29.95;;;18.35;;
21786;SDS011;11055;50.870;4.316;2022-12-18T02:12:19;32.20;;;19.42;;
21786;SDS011;11055;50.870;4.316;2022-12-18T02:14:55;29.00;;;18.33;;
21786;SDS011;11055;50.870;4.316;2022-12-18T02:17:35;30.20;;;18.13;;
21786;SDS011;11055;50.870;4.316;2022-12-18T02:28:43;31.85;;;17.75;;
21786;SDS011;11055;50.870;4.316;2022-12-18T02:31:15;27.52;;;16.73;;
21786;SDS011;11055;50.870;4.316;2022-12-18T02:33:48;31.75;;;18.05;;
21786;SDS011;11055;50.870;4.316;2022-12-18T02:36:16;28.80;;;17.65;;
21786;SDS011;11055;50.870;4.316;2022-12-18T02:38:44;27.00;;;16.23;;
21786;SDS011;11055;50.870;4.316;2022-12-18T02:41:11;27.75;;;17.17;;
21786;SDS011;11055;50.870;4.316;2022-12-18T02:43:39;28.55;;;17.45;;
21786;SDS011;11055;50.870;4.316;2022-12-18T02:49:10;27.70;;;16.77;;
21786;SDS011;11055;50.870;4.316;2022-12-18T02:56:46;28.77;;;16.95;;
21786;SDS011;11055;50.870;4.316;2022-12-18T02:59:21;29.23;;;17.92;;
21786;SDS011;11055;50.870;4.316;2022-12-18T03:02:02;29.08;;;17.00;;
21786;SDS011;11055;50.870;4.316;2022-12-18T03:07:56;30.02;;;17.15;;
21786;SDS011;11055;50.870;4.316;2022-12-18T03:10:29;27.15;;;16.63;;
21786;SDS011;11055;50.870;4.316;2022-12-18T03:13:04;28.83;;;17.02;;
21786;SDS011;11055;50.870;4.316;2022-12-18T03:15:38;30.33;;;17.42;;
21786;SDS011;11055;50.870;4.316;2022-12-18T03:18:17;30.70;;;18.67;;
21786;SDS011;11055;50.870;4.316;2022-12-18T03:20:48;27.27;;;17.33;;
21786;SDS011;11055;50.870;4.316;2022-12-18T03:23:17;29.05;;;17.40;;
21786;SDS011;11055;50.870;4.316;2022-12-18T03:25:46;29.63;;;17.80;;
21786;SDS011;11055;50.870;4.316;2022-12-18T03:28:19;29.83;;;17.17;;
21786;SDS011;11055;50.870;4.316;2022-12-18T03:30:46;28.67;;;16.67;;
21786;SDS011;11055;50.870;4.316;2022-12-18T03:35:59;25.83;;;15.68;;
21786;SDS011;11055;50.870;4.316;2022-12-18T03:38:25;28.10;;;16.13;;
21786;SDS011;11055;50.870;4.316;2022-12-18T03:46:05;25.42;;;15.95;;
21786;SDS011;11055;50.870;4.316;2022-12-18T03:49:00;27.60;;;16.33;;
21786;SDS011;11055;50.870;4.316;2022-12-18T03:54:15;27.95;;;16.20;;
21786;SDS011;11055;50.870;4.316;2022-12-18T03:56:44;25.83;;;15.88;;
21786;SDS011;11055;50.870;4.316;2022-12-18T03:59:13;24.40;;;15.05;;
21786;SDS011;11055;50.870;4.316;2022-12-18T04:01:42;24.95;;;14.82;;
21786;SDS011;11055;50.870;4.316;2022-12-18T04:04:12;25.52;;;15.77;;
21786;SDS011;11055;50.870;4.316;2022-12-18T04:06:40;25.05;;;14.93;;
21786;SDS011;11055;50.870;4.316;2022-12-18T04:09:08;24.23;;;15.00;;
21786;SDS011;11055;50.870;4.316;2022-12-18T04:11:34;23.20;;;14.20;;
21786;SDS011;11055;50.870;4.316;2022-12-18T04:14:00;25.70;;;14.75;;
21786;SDS011;11055;50.870;4.316;2022-12-18T04:16:26;24.25;;;14.70;;
21786;SDS011;11055;50.870;4.316;2022-12-18T04:18:52;25.83;;;14.70;;
21786;SDS011;11055;50.870;4.316;2022-12-18T04:21:19;25.98;;;15.02;;
21786;SDS011;11055;50.870;4.316;2022-12-18T04:23:45;23.98;;;14.85;;
21786;SDS011;11055;50.870;4.316;2022-12-18T04:26:14;23.23;;;14.48;;
21786;SDS011;11055;50.870;4.316;2022-12-18T04:28:39;22.10;;;14.00;;
21786;SDS011;11055;50.870;4.316;2022-12-18T04:31:05;21.45;;;13.50;;
21786;SDS011;11055;50.870;4.316;2022-12-18T04:33:31;22.52;;;13.70;;
21786;SDS011;11055;50.870;4.316;2022-12-18T04:35:56;22.20;;;14.15;;
21786;SDS011;11055;50.870;4.316;2022-12-18T04:38:22;23.73;;;14.15;;
21786;SDS011;11055;50.870;4.316;2022-12-18T04:40:48;23.52;;;14.00;;
21786;SDS011;11055;50.870;4.316;2022-12-18T04:43:14;23.00;;;13.48;;
21786;SDS011;11055;50.870;4.316;2022-12-18T04:45:39;26.65;;;15.30;;
21786;SDS011;11055;50.870;4.316;2022-12-18T04:48:05;23.92;;;14.02;;
21786;SDS011;11055;50.870;4.316;2022-12-18T04:50:31;22.17;;;14.27;;
21786;SDS011;11055;50.870;4.316;2022-12-18T04:52:57;21.75;;;13.55;;
21786;SDS011;11055;50.870;4.316;2022-12-18T04:55:23;22.10;;;13.45;;
21786;SDS011;11055;50.870;4.316;2022-12-18T04:57:48;22.50;;;13.85;;
21786;SDS011;11055;50.870;4.316;2022-12-18T05:00:14;19.70;;;13.32;;
21786;SDS011;11055;50.870;4.316;2022-12-18T05:02:40;19.80;;;12.95;;
21786;SDS011;11055;50.870;4.316;2022-12-18T05:05:06;22.55;;;14.07;;
21786;SDS011;11055;50.870;4.316;2022-12-18T05:07:32;22.05;;;13.20;;
21786;SDS011;11055;50.870;4.316;2022-12-18T05:09:58;22.48;;;13.07;;
21786;SDS011;11055;50.870;4.316;2022-12-18T05:12:23;20.17;;;12.63;;
21786;SDS011;11055;50.870;4.316;2022-12-18T05:14:49;21.98;;;12.73;;
21786;SDS011;11055;50.870;4.316;2022-12-18T05:17:15;19.42;;;12.13;;
21786;SDS011;11055;50.870;4.316;2022-12-18T05:19:41;19.88;;;11.95;;
21786;SDS011;11055;50.870;4.316;2022-12-18T05:22:06;21.27;;;12.57;;
21786;SDS011;11055;50.870;4.316;2022-12-18T05:24:32;21.27;;;12.88;;
21786;SDS011;11055;50.870;4.316;2022-12-18T05:26:58;17.90;;;11.57;;
21786;SDS011;11055;50.870;4.316;2022-12-18T05:29:24;18.92;;;11.50;;
21786;SDS011;11055;50.870;4.316;2022-12-18T05:31:50;18.77;;;11.52;;
21786;SDS011;11055;50.870;4.316;2022-12-18T05:34:15;18.77;;;12.48;;
21786;SDS011;11055;50.870;4.316;2022-12-18T05:36:41;22.80;;;12.23;;
21786;SDS011;11055;50.870;4.316;2022-12-18T05:39:07;19.20;;;11.40;;
21786;SDS011;11055;50.870;4.316;2022-12-18T05:41:33;22.38;;;11.95;;
21786;SDS011;11055;50.870;4.316;2022-12-18T05:43:59;19.58;;;11.43;;
21786;SDS011;11055;50.870;4.316;2022-12-18T05:46:25;18.17;;;12.00;;
21786;SDS011;11055;50.870;4.316;2022-12-18T05:48:51;17.77;;;11.60;;
21786;SDS011;11055;50.870;4.316;2022-12-18T05:51:18;19.30;;;11.55;;
21786;SDS011;11055;50.870;4.316;2022-12-18T05:53:45;19.95;;;11.55;;
21786;SDS011;11055;50.870;4.316;2022-12-18T05:56:13;18.85;;;11.40;;
21786;SDS011;11055;50.870;4.316;2022-12-18T05:58:41;18.95;;;11.65;;
21786;SDS011;11055;50.870;4.316;2022-12-18T06:01:11;17.63;;;11.70;;
21786;SDS011;11055;50.870;4.316;2022-12-18T06:03:40;17.15;;;10.55;;
21786;SDS011;11055;50.870;4.316;2022-12-18T06:06:16;15.20;;;9.98;;
21786;SDS011;11055;50.870;4.316;2022-12-18T06:08:44;19.13;;;11.13;;
21786;SDS011;11055;50.870;4.316;2022-12-18T06:11:10;17.75;;;11.02;;
21786;SDS011;11055;50.870;4.316;2022-12-18T06:13:36;17.65;;;10.77;;
21786;SDS011;11055;50.870;4.316;2022-12-18T06:16:04;17.77;;;11.40;;
21786;SDS011;11055;50.870;4.316;2022-12-18T06:18:31;17.65;;;11.30;;
21786;SDS011;11055;50.870;4.316;2022-12-18T06:20:57;18.70;;;11.38;;
21786;SDS011;11055;50.870;4.316;2022-12-18T06:23:24;19.77;;;11.77;;
21786;SDS011;11055;50.870;4.316;2022-12-18T06:25:50;21.13;;;12.45;;
21786;SDS011;11055;50.870;4.316;2022-12-18T06:28:16;19.92;;;11.75;;
21786;SDS011;11055;50.870;4.316;2022-12-18T06:30:45;21.85;;;11.93;;
21786;SDS011;11055;50.870;4.316;2022-12-18T06:33:13;17.00;;;11.25;;
21786;SDS011;11055;50.870;4.316;2022-12-18T06:35:39;19.10;;;12.45;;
21786;SDS011;11055;50.870;4.316;2022-12-18T06:38:05;17.17;;;11.27;;
21786;SDS011;11055;50.870;4.316;2022-12-18T06:40:31;26.02;;;11.95;;
21786;SDS011;11055;50.870;4.316;2022-12-18T06:42:57;17.70;;;11.10;;
21786;SDS011;11055;50.870;4.316;2022-12-18T06:45:23;17.17;;;10.82;;
21786;SDS011;11055;50.870;4.316;2022-12-18T06:47:49;18.05;;;11.38;;
21786;SDS011;11055;50.870;4.316;2022-12-18T06:50:15;17.58;;;11.52;;
21786;SDS011;11055;50.870;4.316;2022-12-18T06:52:41;17.90;;;11.40;;
21786;SDS011;11055;50.870;4.316;2022-12-18T06:55:09;19.52;;;12.02;;
21786;SDS011;11055;50.870;4.316;2022-12-18T06:57:35;18.67;;;12.13;;
21786;SDS011;11055;50.870;4.316;2022-12-18T07:00:02;19.05;;;11.23;;
21786;SDS011;11055;50.870;4.316;2022-12-18T07:02:29;16.20;;;10.40;;
21786;SDS011;11055;50.870;4.316;2022-12-18T07:04:54;15.23;;;10.05;;
21786;SDS011;11055;50.870;4.316;2022-12-18T07:07:20;16.40;;;10.60;;
21786;SDS011;11055;50.870;4.316;2022-12-18T07:09:46;16.73;;;9.93;;
21786;SDS011;11055;50.870;4.316;2022-12-18T07:12:11;12.65;;;8.93;;
21786;SDS011;11055;50.870;4.316;2022-12-18T07:14:37;13.68;;;8.52;;
21786;SDS011;11055;50.870;4.316;2022-12-18T07:17:03;14.32;;;8.43;;
21786;SDS011;11055;50.870;4.316;2022-12-18T07:19:29;14.27;;;8.88;;
21786;SDS011;11055;50.870;4.316;2022-12-18T07:21:54;14.05;;;7.90;;
21786;SDS011;11055;50.870;4.316;2022-12-18T07:24:20;12.23;;;8.18;;
21786;SDS011;11055;50.870;4.316;2022-12-18T07:26:46;13.63;;;8.60;;
21786;SDS011;11055;50.870;4.316;2022-12-18T07:29:11;11.85;;;8.50;;
21786;SDS011;11055;50.870;4.316;2022-12-18T07:31:38;15.48;;;9.68;;
21786;SDS011;11055;50.870;4.316;2022-12-18T07:34:03;13.75;;;9.23;;
21786;SDS011;11055;50.870;4.316;2022-12-18T07:36:29;19.58;;;10.50;;
21786;SDS011;11055;50.870;4.316;2022-12-18T07:38:55;16.98;;;10.23;;
21786;SDS011;11055;50.870;4.316;2022-12-18T07:41:21;15.65;;;10.07;;
21786;SDS011;11055;50.870;4.316;2022-12-18T07:43:47;14.52;;;9.65;;
21786;SDS011;11055;50.870;4.316;2022-12-18T07:46:13;13.07;;;8.18;;
21786;SDS011;11055;50.870;4.316;2022-12-18T07:48:41;12.60;;;8.75;;
21786;SDS011;11055;50.870;4.316;2022-12-18T07:51:07;15.88;;;9.63;;
21786;SDS011;11055;50.870;4.316;2022-12-18T07:53:34;15.40;;;9.68;;
21786;SDS011;11055;50.870;4.316;2022-12-18T07:56:02;15.00;;;8.85;;
21786;SDS011;11055;50.870;4.316;2022-12-18T07:58:30;15.82;;;9.02;;
21786;SDS011;11055;50.870;4.316;2022-12-18T08:01:03;15.25;;;9.50;;
21786;SDS011;11055;50.870;4.316;2022-12-18T08:03:29;15.45;;;10.48;;
21786;SDS011;11055;50.870;4.316;2022-12-18T08:06:02;15.00;;;9.68;;
21786;SDS011;11055;50.870;4.316;2022-12-18T08:08:29;17.48;;;9.60;;
21786;SDS011;11055;50.870;4.316;2022-12-18T08:10:55;15.48;;;9.75;;
21786;SDS011;11055;50.870;4.316;2022-12-18T08:13:22;14.00;;;9.68;;
21786;SDS011;11055;50.870;4.316;2022-12-18T08:16:09;14.00;;;9.52;;
21786;SDS011;11055;50.870;4.316;2022-12-18T08:18:37;13.73;;;9.07;;
21786;SDS011;11055;50.870;4.316;2022-12-18T08:21:12;14.35;;;9.63;;
21786;SDS011;11055;50.870;4.316;2022-12-18T08:23:38;11.70;;;7.50;;
21786;SDS011;11055;50.870;4.316;2022-12-18T08:26:04;11.85;;;7.82;;
21786;SDS011;11055;50.870;4.316;2022-12-18T08:28:30;12.00;;;7.80;;
21786;SDS011;11055;50.870;4.316;2022-12-18T08:30:56;12.18;;;7.70;;
21786;SDS011;11055;50.870;4.316;2022-12-18T08:33:21;11.38;;;7.38;;
21786;SDS011;11055;50.870;4.316;2022-12-18T08:35:47;10.70;;;7.18;;
21786;SDS011;11055;50.870;4.316;2022-12-18T08:38:13;10.73;;;7.35;;
21786;SDS011;11055;50.870;4.316;2022-12-18T08:40:38;9.73;;;6.68;;
21786;SDS011;11055;50.870;4.316;2022-12-18T08:43:04;12.95;;;8.05;;
21786;SDS011;11055;50.870;4.316;2022-12-18T08:45:48;10.07;;;6.97;;
21786;SDS011;11055;50.870;4.316;2022-12-18T08:48:14;11.50;;;7.30;;
21786;SDS011;11055;50.870;4.316;2022-12-18T08:50:40;10.85;;;7.22;;
21786;SDS011;11055;50.870;4.316;2022-12-18T08:53:06;13.82;;;7.88;;
21786;SDS011;11055;50.870;4.316;2022-12-18T08:55:31;12.05;;;7.68;;
21786;SDS011;11055;50.870;4.316;2022-12-18T08:57:57;13.43;;;8.13;;
21786;SDS011;11055;50.870;4.316;2022-12-18T09:00:23;11.68;;;7.90;;
21786;SDS011;11055;50.870;4.316;2022-12-18T09:02:48;14.27;;;8.40;;
21786;SDS011;11055;50.870;4.316;2022-12-18T09:05:14;13.38;;;8.10;;
21786;SDS011;11055;50.870;4.316;2022-12-18T09:07:40;15.05;;;9.30;;
21786;SDS011;11055;50.870;4.316;2022-12-18T09:10:06;12.48;;;8.25;;
21786;SDS011;11055;50.870;4.316;2022-12-18T09:12:32;11.68;;;7.50;;
21786;SDS011;11055;50.870;4.316;2022-12-18T09:14:57;13.27;;;7.88;;
21786;SDS011;11055;50.870;4.316;2022-12-18T09:17:25;12.70;;;8.00;;
21786;SDS011;11055;50.870;4.316;2022-12-18T09:19:51;14.60;;;8.93;;
21786;SDS011;11055;50.870;4.316;2022-12-18T09:22:16;14.18;;;8.70;;
21786;SDS011;11055;50.870;4.316;2022-12-18T09:24:42;12.73;;;7.97;;
21786;SDS011;11055;50.870;4.316;2022-12-18T09:27:08;10.57;;;8.18;;
21786;SDS011;11055;50.870;4.316;2022-12-18T09:29:33;17.05;;;9.23;;
21786;SDS011;11055;50.870;4.316;2022-12-18T09:31:59;13.10;;;8.20;;
21786;SDS011;11055;50.870;4.316;2022-12-18T09:34:25;13.88;;;9.05;;
21786;SDS011;11055;50.870;4.316;2022-12-18T09:36:50;13.60;;;9.38;;
21786;SDS011;11055;50.870;4.316;2022-12-18T09:39:16;14.65;;;8.75;;
21786;SDS011;11055;50.870;4.316;2022-12-18T09:41:54;14.95;;;8.93;;
21786;SDS011;11055;50.870;4.316;2022-12-18T09:44:36;16.65;;;9.18;;
21786;SDS011;11055;50.870;4.316;2022-12-18T09:49:53;16.85;;;9.98;;
21786;SDS011;11055;50.870;4.316;2022-12-18T09:52:32;15.57;;;9.70;;
21786;SDS011;11055;50.870;4.316;2022-12-18T09:55:12;15.90;;;9.82;;
21786;SDS011;11055;50.870;4.316;2022-12-18T09:58:31;14.98;;;9.50;;
21786;SDS011;11055;50.870;4.316;2022-12-18T10:00:57;17.35;;;9.02;;
21786;SDS011;11055;50.870;4.316;2022-12-18T10:03:23;14.82;;;9.80;;
21786;SDS011;11055;50.870;4.316;2022-12-18T10:08:25;16.65;;;9.60;;
21786;SDS011;11055;50.870;4.316;2022-12-18T10:11:10;17.15;;;9.82;;
21786;SDS011;11055;50.870;4.316;2022-12-18T10:14:02;18.90;;;10.52;;
21786;SDS011;11055;50.870;4.316;2022-12-18T10:16:36;16.27;;;8.85;;
21786;SDS011;11055;50.870;4.316;2022-12-18T10:25:12;16.88;;;10.10;;
21786;SDS011;11055;50.870;4.316;2022-12-18T10:27:40;15.55;;;10.45;;
21786;SDS011;11055;50.870;4.316;2022-12-18T10:30:13;17.13;;;10.38;;
21786;SDS011;11055;50.870;4.316;2022-12-18T10:32:40;17.15;;;10.38;;
21786;SDS011;11055;50.870;4.316;2022-12-18T10:35:20;18.00;;;9.95;;
21786;SDS011;11055;50.870;4.316;2022-12-18T10:38:50;22.50;;;10.93;;
21786;SDS011;11055;50.870;4.316;2022-12-18T10:43:16;21.45;;;11.15;;
21786;SDS011;11055;50.870;4.316;2022-12-18T10:48:39;18.60;;;10.02;;
21786;SDS011;11055;50.870;4.316;2022-12-18T10:51:11;15.10;;;10.45;;
21786;SDS011;11055;50.870;4.316;2022-12-18T10:56:23;15.50;;;10.52;;
21786;SDS011;11055;50.870;4.316;2022-12-18T10:58:58;19.75;;;11.60;;
21786;SDS011;11055;50.870;4.316;2022-12-18T11:01:26;15.20;;;10.27;;
21786;SDS011;11055;50.870;4.316;2022-12-18T11:06:21;17.42;;;10.52;;
21786;SDS011;11055;50.870;4.316;2022-12-18T11:09:05;15.20;;;10.77;;
21786;SDS011;11055;50.870;4.316;2022-12-18T11:11:48;17.73;;;11.27;;
21786;SDS011;11055;50.870;4.316;2022-12-18T11:14:29;17.73;;;10.55;;
21786;SDS011;11055;50.870;4.316;2022-12-18T11:16:59;18.37;;;10.93;;
21786;SDS011;11055;50.870;4.316;2022-12-18T11:21:54;19.42;;;11.30;;
21786;SDS011;11055;50.870;4.316;2022-12-18T11:26:55;21.02;;;11.05;;
21786;SDS011;11055;50.870;4.316;2022-12-18T11:29:36;16.10;;;11.13;;
21786;SDS011;11055;50.870;4.316;2022-12-18T11:34:49;17.08;;;11.25;;
21786;SDS011;11055;50.870;4.316;2022-12-18T11:37:20;17.13;;;10.77;;
21786;SDS011;11055;50.870;4.316;2022-12-18T11:39:50;18.52;;;10.70;;
21786;SDS011;11055;50.870;4.316;2022-12-18T11:42:24;16.40;;;11.25;;
21786;SDS011;11055;50.870;4.316;2022-12-18T11:45:02;17.40;;;11.63;;
21786;SDS011;11055;50.870;4.316;2022-12-18T11:47:45;16.15;;;10.50;;
21786;SDS011;11055;50.870;4.316;2022-12-18T11:50:16;18.80;;;12.10;;
21786;SDS011;11055;50.870;4.316;2022-12-18T11:52:48;19.38;;;11.73;;
21786;SDS011;11055;50.870;4.316;2022-12-18T11:55:27;17.17;;;11.70;;
21786;SDS011;11055;50.870;4.316;2022-12-18T12:00:55;18.48;;;11.60;;
21786;SDS011;11055;50.870;4.316;2022-12-18T12:15:18;20.23;;;11.98;;
21786;SDS011;11055;50.870;4.316;2022-12-18T12:32:27;19.27;;;12.32;;
21786;SDS011;11055;50.870;4.316;2022-12-18T12:40:39;18.80;;;12.05;;
21786;SDS011;11055;50.870;4.316;2022-12-18T12:43:22;19.23;;;11.88;;
21786;SDS011;11055;50.870;4.316;2022-12-18T12:46:07;21.92;;;11.70;;
21786;SDS011;11055;50.870;4.316;2022-12-18T12:48:49;20.40;;;12.25;;
21786;SDS011;11055;50.870;4.316;2022-12-18T12:53:49;22.98;;;13.18;;
21786;SDS011;11055;50.870;4.316;2022-12-18T12:56:16;18.63;;;12.52;;
21786;SDS011;11055;50.870;4.316;2022-12-18T13:12:46;22.15;;;12.98;;
21786;SDS011;11055;50.870;4.316;2022-12-18T13:15:23;47.08;;;24.67;;
21786;SDS011;11055;50.870;4.316;2022-12-18T13:23:01;23.70;;;14.82;;
21786;SDS011;11055;50.870;4.316;2022-12-18T13:25:44;21.48;;;13.60;;
21786;SDS011;11055;50.870;4.316;2022-12-18T13:28:10;25.85;;;15.15;;
21786;SDS011;11055;50.870;4.316;2022-12-18T13:30:53;24.75;;;14.75;;
21786;SDS011;11055;50.870;4.316;2022-12-18T13:38:22;23.45;;;15.48;;
21786;SDS011;11055;50.870;4.316;2022-12-18T13:48:30;29.58;;;16.60;;
21786;SDS011;11055;50.870;4.316;2022-12-18T13:51:03;30.65;;;16.50;;
21786;SDS011;11055;50.870;4.316;2022-12-18T13:53:35;25.60;;;16.40;;
21786;SDS011;11055;50.870;4.316;2022-12-18T13:56:14;27.10;;;16.48;;
21786;SDS011;11055;50.870;4.316;2022-12-18T13:58:41;26.77;;;16.05;;
21786;SDS011;11055;50.870;4.316;2022-12-18T14:01:20;28.40;;;16.42;;
21786;SDS011;11055;50.870;4.316;2022-12-18T14:03:48;27.52;;;16.90;;
21786;SDS011;11055;50.870;4.316;2022-12-18T14:06:13;30.77;;;17.33;;
21786;SDS011;11055;50.870;4.316;2022-12-18T14:08:41;28.88;;;16.95;;
21786;SDS011;11055;50.870;4.316;2022-12-18T14:11:19;28.75;;;17.15;;
21786;SDS011;11055;50.870;4.316;2022-12-18T14:13:47;27.05;;;16.70;;
21786;SDS011;11055;50.870;4.316;2022-12-18T14:16:14;32.97;;;17.40;;
21786;SDS011;11055;50.870;4.316;2022-12-18T14:18:45;29.67;;;18.88;;
21786;SDS011;11055;50.870;4.316;2022-12-18T14:21:24;29.33;;;18.45;;
21786;SDS011;11055;50.870;4.316;2022-12-18T14:24:14;29.92;;;17.17;;
21786;SDS011;11055;50.870;4.316;2022-12-18T14:26:44;30.25;;;18.00;;
21786;SDS011;11055;50.870;4.316;2022-12-18T14:29:18;27.73;;;18.02;;
21786;SDS011;11055;50.870;4.316;2022-12-18T14:32:06;27.50;;;17.00;;
21786;SDS011;11055;50.870;4.316;2022-12-18T14:34:34;26.48;;;17.10;;
21786;SDS011;11055;50.870;4.316;2022-12-18T14:37:00;26.48;;;17.98;;
21786;SDS011;11055;50.870;4.316;2022-12-18T14:39:26;31.23;;;18.08;;
21786;SDS011;11055;50.870;4.316;2022-12-18T14:41:52;28.67;;;17.95;;
21786;SDS011;11055;50.870;4.316;2022-12-18T14:44:17;32.58;;;18.42;;
21786;SDS011;11055;50.870;4.316;2022-12-18T14:46:44;29.27;;;17.13;;
21786;SDS011;11055;50.870;4.316;2022-12-18T14:49:19;31.15;;;19.10;;
21786;SDS011;11055;50.870;4.316;2022-12-18T14:51:52;30.38;;;19.00;;
21786;SDS011;11055;50.870;4.316;2022-12-18T14:54:20;31.90;;;18.02;;
21786;SDS011;11055;50.870;4.316;2022-12-18T14:56:48;30.75;;;17.67;;
21786;SDS011;11055;50.870;4.316;2022-12-18T14:59:24;30.80;;;18.15;;
21786;SDS011;11055;50.870;4.316;2022-12-18T15:02:03;30.92;;;17.67;;
21786;SDS011;11055;50.870;4.316;2022-12-18T15:04:34;31.15;;;18.35;;
21786;SDS011;11055;50.870;4.316;2022-12-18T15:07:14;35.42;;;19.98;;
21786;SDS011;11055;50.870;4.316;2022-12-18T15:09:42;31.65;;;18.13;;
21786;SDS011;11055;50.870;4.316;2022-12-18T15:12:36;34.70;;;19.10;;
21786;SDS011;11055;50.870;4.316;2022-12-18T15:15:05;33.40;;;19.17;;
21786;SDS011;11055;50.870;4.316;2022-12-18T15:18:03;33.63;;;18.42;;
21786;SDS011;11055;50.870;4.316;2022-12-18T15:20:43;33.17;;;19.23;;
21786;SDS011;11055;50.870;4.316;2022-12-18T15:23:38;30.30;;;18.95;;
21786;SDS011;11055;50.870;4.316;2022-12-18T15:26:11;30.80;;;18.65;;
21786;SDS011;11055;50.870;4.316;2022-12-18T15:28:45;31.02;;;17.92;;
21786;SDS011;11055;50.870;4.316;2022-12-18T15:33:42;29.92;;;18.98;;
21786;SDS011;11055;50.870;4.316;2022-12-18T15:36:12;34.20;;;19.30;;
21786;SDS011;11055;50.870;4.316;2022-12-18T15:38:39;36.35;;;20.35;;
21786;SDS011;11055;50.870;4.316;2022-12-18T15:41:05;31.70;;;19.50;;
21786;SDS011;11055;50.870;4.316;2022-12-18T15:43:31;36.22;;;19.70;;
21786;SDS011;11055;50.870;4.316;2022-12-18T15:46:11;32.42;;;18.30;;
21786;SDS011;11055;50.870;4.316;2022-12-18T15:48:42;34.45;;;19.42;;
21786;SDS011;11055;50.870;4.316;2022-12-18T15:51:28;33.55;;;18.88;;
21786;SDS011;11055;50.870;4.316;2022-12-18T15:54:00;38.90;;;18.90;;
21786;SDS011;11055;50.870;4.316;2022-12-18T15:56:28;31.67;;;19.15;;
21786;SDS011;11055;50.870;4.316;2022-12-18T15:59:14;34.60;;;19.05;;
21786;SDS011;11055;50.870;4.316;2022-12-18T16:01:42;31.80;;;18.98;;
21786;SDS011;11055;50.870;4.316;2022-12-18T16:04:13;35.03;;;18.98;;
21786;SDS011;11055;50.870;4.316;2022-12-18T16:06:41;35.22;;;18.88;;
21786;SDS011;11055;50.870;4.316;2022-12-18T16:09:07;32.88;;;18.85;;
21786;SDS011;11055;50.870;4.316;2022-12-18T16:11:33;36.67;;;20.65;;
21786;SDS011;11055;50.870;4.316;2022-12-18T16:16:35;34.50;;;19.70;;
21786;SDS011;11055;50.870;4.316;2022-12-18T16:19:01;30.05;;;17.77;;
21786;SDS011;11055;50.870;4.316;2022-12-18T16:21:26;31.23;;;17.70;;
21786;SDS011;11055;50.870;4.316;2022-12-18T16:23:52;32.08;;;18.33;;
21786;SDS011;11055;50.870;4.316;2022-12-18T16:26:18;33.03;;;18.02;;
21786;SDS011;11055;50.870;4.316;2022-12-18T16:28:43;28.52;;;17.15;;
21786;SDS011;11055;50.870;4.316;2022-12-18T16:31:09;32.53;;;19.45;;
21786;SDS011;11055;50.870;4.316;2022-12-18T16:33:34;33.83;;;19.00;;
21786;SDS011;11055;50.870;4.316;2022-12-18T16:36:00;31.50;;;17.73;;
21786;SDS011;11055;50.870;4.316;2022-12-18T16:38:26;32.40;;;18.75;;
21786;SDS011;11055;50.870;4.316;2022-12-18T16:40:51;30.55;;;17.92;;
21786;SDS011;11055;50.870;4.316;2022-12-18T16:43:35;33.00;;;18.50;;
21786;SDS011;11055;50.870;4.316;2022-12-18T16:46:01;34.30;;;18.35;;
21786;SDS011;11055;50.870;4.316;2022-12-18T16:48:26;31.67;;;17.85;;
21786;SDS011;11055;50.870;4.316;2022-12-18T16:50:58;30.63;;;17.63;;
21786;SDS011;11055;50.870;4.316;2022-12-18T16:53:26;30.90;;;17.52;;
21786;SDS011;11055;50.870;4.316;2022-12-18T16:55:55;31.05;;;17.17;;
21786;SDS011;11055;50.870;4.316;2022-12-18T16:58:21;27.83;;;16.38;;